sensor_id;sensor_type;location;lat;lon;timestamp;temperature;humidity
40702;DHT22;26387;50.114;8.662;2023-03-22T03:04:45;12.60;99.10
40702;DHT22;26387;50.114;8.662;2023-03-22T03:07:11;12.00;97.10
40702;DHT22;26387;50.114;8.662;2023-03-22T03:09:39;11.90;97.10
40702;DHT22;26387;50.114;8.662;2023-03-22T03:12:27;11.80;97.10
40702;DHT22;26387;50.114;8.662;2023-03-22T03:14:52;11.80;97.00
40702;DHT22;26387;50.114;8.662;2023-03-22T13:01:52;11.80;97.00
40702;DHT22;26387;50.114;8.662;2023-03-22T13:06:57;21.50;61.60
40702;DHT22;26387;50.114;8.662;2023-03-22T13:16:51;21.70;62.70
40702;DHT22;26387;50.114;8.662;2023-03-22T13:21:42;22.60;58.10
40702;DHT22;26387;50.114;8.662;2023-03-22T14:15:15;22.80;57.70
40702;DHT22;26387;50.114;8.662;2023-03-22T15:45:27;22.10;52.70
40702;DHT22;26387;50.114;8.662;2023-03-22T15:50:19;19.70;59.30
40702;DHT22;26387;50.114;8.662;2023-03-22T15:52:52;19.30;59.70
40702;DHT22;26387;50.114;8.662;2023-03-22T15:55:19;19.20;60.10
40702;DHT22;26387;50.114;8.662;2023-03-22T16:00:18;19.20;60.80
40702;DHT22;26387;50.114;8.662;2023-03-22T16:02:51;19.20;61.00
40702;DHT22;26387;50.114;8.662;2023-03-22T16:05:17;19.20;61.40
40702;DHT22;26387;50.114;8.662;2023-03-22T16:07:43;19.10;61.80
40702;DHT22;26387;50.114;8.662;2023-03-22T16:10:13;19.10;62.00
40702;DHT22;26387;50.114;8.662;2023-03-22T16:12:38;19.00;62.50
40702;DHT22;26387;50.114;8.662;2023-03-22T16:15:04;18.90;62.30
40702;DHT22;26387;50.114;8.662;2023-03-22T16:17:31;18.90;62.60
40702;DHT22;26387;50.114;8.662;2023-03-22T16:19:57;18.90;62.70
40702;DHT22;26387;50.114;8.662;2023-03-22T16:22:22;18.80;63.10
40702;DHT22;26387;50.114;8.662;2023-03-22T16:24:48;18.80;63.20
40702;DHT22;26387;50.114;8.662;2023-03-22T16:27:19;18.80;63.10
40702;DHT22;26387;50.114;8.662;2023-03-22T16:29:44;18.80;63.30
40702;DHT22;26387;50.114;8.662;2023-03-22T16:32:14;18.70;63.40
40702;DHT22;26387;50.114;8.662;2023-03-22T16:34:40;18.70;63.60
40702;DHT22;26387;50.114;8.662;2023-03-22T16:37:12;18.60;63.70
40702;DHT22;26387;50.114;8.662;2023-03-22T16:39:37;18.50;64.00
40702;DHT22;26387;50.114;8.662;2023-03-22T18:43:55;18.50;63.90
40702;DHT22;26387;50.114;8.662;2023-03-22T18:46:20;17.60;67.20
40702;DHT22;26387;50.114;8.662;2023-03-22T18:48:45;17.50;67.20
40702;DHT22;26387;50.114;8.662;2023-03-22T18:51:11;17.50;66.70
40702;DHT22;26387;50.114;8.662;2023-03-22T18:53:37;17.50;66.30
40702;DHT22;26387;50.114;8.662;2023-03-22T18:56:03;17.50;66.20
40702;DHT22;26387;50.114;8.662;2023-03-22T18:58:29;17.50;65.30
40702;DHT22;26387;50.114;8.662;2023-03-22T19:00:54;17.40;64.80
40702;DHT22;26387;50.114;8.662;2023-03-22T19:03:20;17.40;63.80
